Soaring Guidance
Issued by NWS Reno, NV

Home | Current Version | Previous Version | Text Only | Print | Product List | Glossary On
Versions: 1 2 3 4 5 6 7
000
UXUS97 KREV 231450
SRGREV

SOARING FORECAST
NATIONAL WEATHER SERVICE - RENO NV
700 AM PST THU FEB 23 2017

THIS SOARING FORECAST IS FOR THE EASTERN SIERRA AND WESTERN NEVADA
WITH SPECIFIC INDICES FOR THE GREATER RENO AREA.

THIS FORECAST IS PREPARED DAILY BY 700 AM AND IS NOT UPDATED.

FOR CURRENT FLIGHT CONDITIONS...FORECASTS...AND ADVISORIES...ACCESS
YOUR LOCAL BRIEFING OUTLET OR FLIGHT SERVICE STATION.

*******************************************************************
FORECASTED LOCAL INDICES FOR RENO:        TODAY     YESTERDAY
FORECASTED MAX TEMP AT RENO (DEG F).....     37          43
FORECASTED TRIGGER TEMPERATURE (DEG F)..     30          35
   EXCEEDED YESTERDAY BY 955 AM PST
FORECASTED MAXIMUM ALTITUDE (FT MSL)....  16200       10300
FORECASTED SOARING INDEX (FPM)..........   1056         459
FORECASTED K-INDEX.........VALID 18Z....     11           4
FORECASTED K-INDEX.........VALID 00Z....     16          22
FORECASTED LIFTED INDEX....VALID 18Z....      7           3
FORECASTED LIFTED INDEX....VALID 00Z....      5           1

AFTERNOON WINDS ALOFT FORECAST
MSL (FT) WIND/TEMP
9000  3310/-13
10000 3112/-15
12000 3015/-20
14000 3020/-23
16000 3026/-27
18000 3045/-31
24000 3066/-41
30000 2967/-49
34000 2869/-47
39000 2758/-49

SLIDE MOUNTAIN DATA:
     DATE       TIME     TEMP  DEWPT   RH         WIND (MPH)
                        (F)   (F)           | DIR  SPEED GUST
2017-02-23    05:30       3     1     87    | 339    0    0
2017-02-23    05:20       3     1     87    | 339    0    0
2017-02-23    05:00       3     1     87    | 339    0    0
2017-02-23    04:50       3     1     87    | 339    0    0

RENO TAF FORECAST:
TAFRNO
TAF AMD
KRNO 231441Z 2315/2412 33008KT P6SM VCSH BKN070
      TEMPO 2315/2316 4SM -SHSN BKN030
     FM231600 34009KT P6SM SCT040 BKN070
     FM232100 33009KT P6SM VCSH FEW020 BKN050
     FM240500 VRB04KT P6SM SCT050=

CARSON CITY TAF FORECAST:
KCXP 231123Z 2312/2412 VRB05KT P6SM BKN070
     FM232100 31007KT P6SM VCSH FEW020 BKN050
     FM240500 VRB04KT P6SM SCT050

OUTLOOK FOR THE RENO-CARSON CITY-MINDEN AREA:
.FRIDAY...PARTLY CLOUDY IN THE MORNING THEN BECOMING MOSTLY
CLOUDY. HIGHS 36 TO 41. LIGHT WINDS BECOMING SOUTHWEST UP TO
10 MPH IN THE AFTERNOON.

SUNRISE AND SUNSET
FEBRUARY 23 2017......SUNRISE   640 AM PST   SUNSET   545 PM PST
FEBRUARY 24 2017......SUNRISE   639 AM PST   SUNSET   546 PM PST



USA.gov is the U.S. government's official web portal to all federal, state and local government web resources and services.